Time;durP1;ratioP1;P1;durP2;ratioP2;P2;SDS_P1;SDS_P2;PMS_P1;PMS_P2;Temp;Humidity;BMP_temperature;BMP_pressure;BME280_temperature;BME280_humidity;BME280_pressure;Samples;Min_cycle;Max_cycle;Signal;HPM_P1;HPM_P2
2022/03/12 00:01:27;;;;;;;12.32;7.35;;;;;;;;;;5053910;28;20483;-85
2022/03/12 00:03:54;;;;;;;12.43;7.60;;;;;;;;;;5036567;28;20070;-84
2022/03/12 00:06:22;;;;;;;13.13;7.57;;;;;;;;;;5036186;28;20049;-84
2022/03/12 00:08:51;;;;;;;14.63;7.07;;;;;;;;;;5053447;28;20051;-84
2022/03/12 00:11:21;;;;;;;12.60;7.90;;;;;;;;;;5031515;28;20120;-83
2022/03/12 00:13:48;;;;;;;11.38;7.40;;;;;;;;;;5050879;28;20033;-84
2022/03/12 00:16:15;;;;;;;11.07;7.35;;;;;;;;;;5015144;28;20043;-84
2022/03/12 00:18:44;;;;;;;10.65;7.35;;;;;;;;;;5047536;28;20406;-84
2022/03/12 00:21:12;;;;;;;13.75;7.57;;;;;;;;;;5046308;28;20060;-84
2022/03/12 00:23:38;;;;;;;15.57;7.82;;;;;;;;;;5049682;28;20041;-84
2022/03/12 00:26:04;;;;;;;13.95;7.40;;;;;;;;;;5027732;28;20051;-83
2022/03/12 00:28:30;;;;;;;12.50;7.38;;;;;;;;;;5049418;28;20045;-85
2022/03/12 00:30:57;;;;;;;13.23;7.82;;;;;;;;;;5034276;28;20069;-85
2022/03/12 00:33:24;;;;;;;12.43;7.75;;;;;;;;;;5050968;28;20043;-84
2022/03/12 00:35:51;;;;;;;12.95;7.35;;;;;;;;;;5049187;28;20410;-85
2022/03/12 00:38:19;;;;;;;12.80;6.80;;;;;;;;;;5008857;28;20115;-84
2022/03/12 00:40:45;;;;;;;12.18;7.82;;;;;;;;;;5045231;28;20072;-84
2022/03/12 00:43:12;;;;;;;13.40;7.70;;;;;;;;;;5052687;28;20049;-84
2022/03/12 00:45:38;;;;;;;15.60;8.00;;;;;;;;;;5049123;28;20049;-85
2022/03/12 00:48:06;;;;;;;11.52;7.50;;;;;;;;;;5052087;28;20095;-84
2022/03/12 00:50:32;;;;;;;12.40;7.45;;;;;;;;;;5045081;28;20057;-84
2022/03/12 00:52:58;;;;;;;14.55;8.15;;;;;;;;;;5044690;28;20483;-85
2022/03/12 00:55:24;;;;;;;12.98;7.95;;;;;;;;;;5032266;28;20064;-85
2022/03/12 00:57:50;;;;;;;10.98;7.57;;;;;;;;;;5036438;28;20156;-84
2022/03/12 01:00:18;;;;;;;14.73;8.63;;;;;;;;;;5051372;28;20411;-84
2022/03/12 01:02:44;;;;;;;13.90;8.07;;;;;;;;;;5050652;28;20049;-85
2022/03/12 01:05:11;;;;;;;13.10;8.30;;;;;;;;;;5049148;28;20041;-84
2022/03/12 01:07:37;;;;;;;12.95;8.00;;;;;;;;;;5048328;28;20044;-84
2022/03/12 01:10:03;;;;;;;12.98;8.10;;;;;;;;;;5049497;28;20482;-85
2022/03/12 01:12:29;;;;;;;12.32;7.43;;;;;;;;;;5048818;28;20044;-84
2022/03/12 01:14:55;;;;;;;14.68;7.78;;;;;;;;;;5050667;28;20067;-84
2022/03/12 01:17:21;;;;;;;14.30;8.02;;;;;;;;;;5053207;28;20053;-85
2022/03/12 01:19:48;;;;;;;13.55;7.55;;;;;;;;;;5034574;28;20387;-84
2022/03/12 01:22:15;;;;;;;15.98;8.60;;;;;;;;;;5054049;28;20041;-84
2022/03/12 01:24:41;;;;;;;13.65;7.95;;;;;;;;;;5030888;28;20057;-84
2022/03/12 01:27:07;;;;;;;12.85;8.38;;;;;;;;;;5051689;28;20041;-84
2022/03/12 01:29:33;;;;;;;19.02;8.65;;;;;;;;;;5049513;28;20048;-84
2022/03/12 01:31:59;;;;;;;12.88;7.90;;;;;;;;;;5016756;28;20037;-84
2022/03/12 01:34:25;;;;;;;14.60;7.32;;;;;;;;;;5046380;28;20094;-84
2022/03/12 01:36:54;;;;;;;14.85;7.90;;;;;;;;;;5049203;28;20049;-84
2022/03/12 01:39:20;;;;;;;13.93;7.25;;;;;;;;;;5049686;28;20384;-84
2022/03/12 01:41:46;;;;;;;11.45;7.53;;;;;;;;;;5032684;28;20453;-83
2022/03/12 01:44:14;;;;;;;12.13;7.55;;;;;;;;;;5030120;28;20444;-84
2022/03/12 01:46:42;;;;;;;11.70;7.78;;;;;;;;;;5017751;28;20102;-85
2022/03/12 01:49:10;;;;;;;13.68;8.13;;;;;;;;;;5052078;28;20095;-84
2022/03/12 01:51:37;;;;;;;11.60;8.23;;;;;;;;;;5034056;28;20502;-85
2022/03/12 01:54:03;;;;;;;12.55;7.95;;;;;;;;;;5048191;28;20102;-85
2022/03/12 01:56:30;;;;;;;15.15;8.55;;;;;;;;;;5051736;28;20037;-86
2022/03/12 01:58:58;;;;;;;13.65;8.20;;;;;;;;;;5028348;28;20482;-85
2022/03/12 02:01:26;;;;;;;13.68;8.05;;;;;;;;;;5048922;28;20117;-85
2022/03/12 02:03:53;;;;;;;14.27;8.75;;;;;;;;;;5033362;28;20037;-84
2022/03/12 02:06:22;;;;;;;12.65;7.57;;;;;;;;;;5047811;28;20076;-85
2022/03/12 02:08:49;;;;;;;13.02;7.43;;;;;;;;;;5033922;28;20410;-85
2022/03/12 02:11:21;;;;;;;15.10;8.25;;;;;;;;;;5028185;28;20033;-85
2022/03/12 02:13:47;;;;;;;13.70;8.38;;;;;;;;;;5048931;28;20076;-85
2022/03/12 02:16:13;;;;;;;12.98;7.90;;;;;;;;;;5048383;28;20045;-85
2022/03/12 02:18:39;;;;;;;14.88;8.05;;;;;;;;;;5050815;28;20049;-85
2022/03/12 02:21:05;;;;;;;15.55;8.57;;;;;;;;;;5033232;28;20037;-86
2022/03/12 02:23:45;;;;;;;11.13;7.50;;;;;;;;;;5019607;28;20053;-84
2022/03/12 02:26:11;;;;;;;13.13;8.40;;;;;;;;;;5034529;28;20064;-84
2022/03/12 02:28:37;;;;;;;15.13;7.93;;;;;;;;;;5048606;28;20052;-85
2022/03/12 02:31:03;;;;;;;15.15;8.02;;;;;;;;;;5052581;28;20390;-85
2022/03/12 02:33:29;;;;;;;12.35;7.65;;;;;;;;;;5031708;28;20457;-85
2022/03/12 02:35:57;;;;;;;14.32;7.93;;;;;;;;;;5022926;28;20060;-84
2022/03/12 02:38:27;;;;;;;11.98;8.35;;;;;;;;;;5055252;28;20048;-85
2022/03/12 02:40:54;;;;;;;13.40;8.35;;;;;;;;;;5054829;28;20052;-84
2022/03/12 02:43:26;;;;;;;11.90;7.97;;;;;;;;;;5054753;28;20521;-84
2022/03/12 02:45:51;;;;;;;;;;;;;;;;;;5056469;28;20506;-85
2022/03/12 02:48:18;;;;;;;14.45;8.23;;;;;;;;;;5053015;28;19921;-84
2022/03/12 02:50:45;;;;;;;13.68;8.13;;;;;;;;;;5047556;28;20053;-85
2022/03/12 02:53:14;;;;;;;14.02;8.25;;;;;;;;;;5055266;28;20044;-84
2022/03/12 02:55:42;;;;;;;18.70;8.98;;;;;;;;;;5055307;28;20041;-84
2022/03/12 02:58:11;;;;;;;14.68;8.20;;;;;;;;;;5019589;28;20055;-84
2022/03/12 03:00:37;;;;;;;17.67;8.77;;;;;;;;;;5053194;28;20076;-84
2022/03/12 03:03:05;;;;;;;12.23;8.27;;;;;;;;;;5056742;28;20044;-84
2022/03/12 03:08:03;;;;;;;14.40;8.30;;;;;;;;;;5053595;28;20131;-85
2022/03/12 03:10:34;;;;;;;14.80;8.80;;;;;;;;;;5048967;28;20045;-84
2022/03/12 03:13:11;;;;;;;12.30;8.07;;;;;;;;;;5031447;28;20095;-84
2022/03/12 03:15:39;;;;;;;13.73;9.40;;;;;;;;;;5052405;28;20391;-83
2022/03/12 03:18:13;;;;;;;14.80;8.60;;;;;;;;;;5048942;28;20133;-83
2022/03/12 03:20:39;;;;;;;13.93;8.15;;;;;;;;;;5050407;28;20494;-83
2022/03/12 03:23:06;;;;;;;11.82;7.78;;;;;;;;;;5053489;28;20410;-84
2022/03/12 03:25:33;;;;;;;14.23;8.43;;;;;;;;;;5055095;28;20494;-85
2022/03/12 03:27:59;;;;;;;14.27;8.07;;;;;;;;;;5033370;28;20490;-84
2022/03/12 03:30:25;;;;;;;13.40;8.93;;;;;;;;;;5054019;28;20037;-84
2022/03/12 03:32:51;;;;;;;13.65;8.50;;;;;;;;;;5050569;28;20041;-84
2022/03/12 03:35:17;;;;;;;12.50;7.78;;;;;;;;;;5053269;28;20425;-84
2022/03/12 03:37:43;;;;;;;15.93;7.93;;;;;;;;;;5048958;28;20095;-84
2022/03/12 03:40:10;;;;;;;13.75;8.07;;;;;;;;;;5052319;28;20123;-85
2022/03/12 03:42:36;;;;;;;12.88;7.95;;;;;;;;;;5049723;28;20106;-84
2022/03/12 03:45:02;;;;;;;11.80;8.30;;;;;;;;;;5052450;28;20506;-84
2022/03/12 03:47:29;;;;;;;13.10;8.45;;;;;;;;;;5051592;28;20049;-85
2022/03/12 03:49:55;;;;;;;13.43;8.02;;;;;;;;;;5049346;28;20048;-84
2022/03/12 03:52:22;;;;;;;14.43;8.00;;;;;;;;;;5055079;28;20053;-84
2022/03/12 03:54:48;;;;;;;12.25;8.20;;;;;;;;;;5052139;28;20406;-84
2022/03/12 03:57:17;;;;;;;13.75;7.75;;;;;;;;;;5039742;28;20452;-84
2022/03/12 03:59:43;;;;;;;12.68;8.07;;;;;;;;;;5046541;28;20033;-84
2022/03/12 04:02:09;;;;;;;12.50;7.78;;;;;;;;;;5048170;28;20049;-84
2022/03/12 04:04:38;;;;;;;14.02;8.93;;;;;;;;;;5046204;28;20041;-84
2022/03/12 04:07:05;;;;;;;15.65;8.18;;;;;;;;;;5047831;28;20037;-85
2022/03/12 04:09:31;;;;;;;13.02;7.88;;;;;;;;;;5051771;28;20041;-85
2022/03/12 04:11:57;;;;;;;11.63;8.30;;;;;;;;;;5052198;28;20044;-85
2022/03/12 04:14:25;;;;;;;11.43;7.97;;;;;;;;;;5034189;28;20041;-85
2022/03/12 04:16:52;;;;;;;15.20;7.80;;;;;;;;;;5052740;28;20118;-85
2022/03/12 04:19:18;;;;;;;13.70;7.72;;;;;;;;;;5032145;28;20041;-84
2022/03/12 04:21:45;;;;;;;12.38;8.43;;;;;;;;;;5050172;28;20486;-84
2022/03/12 04:24:13;;;;;;;13.45;7.85;;;;;;;;;;5032872;28;20095;-85
2022/03/12 04:26:40;;;;;;;14.38;8.00;;;;;;;;;;5052221;28;20049;-84
2022/03/12 04:29:09;;;;;;;12.48;7.53;;;;;;;;;;5047087;28;20049;-84
2022/03/12 04:31:35;;;;;;;10.95;7.40;;;;;;;;;;5044023;28;20080;-84
2022/03/12 04:34:01;;;;;;;12.00;7.45;;;;;;;;;;5044631;28;20055;-84
2022/03/12 04:36:28;;;;;;;136.45;24.45;;;;;;;;;;5020535;28;20408;-84
2022/03/12 04:38:54;;;;;;;13.15;7.63;;;;;;;;;;5043482;28;20111;-84
2022/03/12 04:41:20;;;;;;;11.43;7.68;;;;;;;;;;5043120;28;20045;-84
2022/03/12 04:43:49;;;;;;;14.70;7.60;;;;;;;;;;5042693;28;20483;-84
2022/03/12 04:46:15;;;;;;;12.32;7.47;;;;;;;;;;5050957;28;20048;-84
2022/03/12 04:48:41;;;;;;;12.75;7.35;;;;;;;;;;5052479;28;20392;-84
2022/03/12 04:51:07;;;;;;;11.07;7.25;;;;;;;;;;5039187;28;20099;-84
2022/03/12 04:53:34;;;;;;;12.73;7.05;;;;;;;;;;5002573;28;20509;-84
2022/03/12 04:56:00;;;;;;;10.75;6.68;;;;;;;;;;5053193;28;20045;-85
2022/03/12 04:58:28;;;;;;;12.57;7.10;;;;;;;;;;5045499;28;20479;-85
2022/03/12 05:00:54;;;;;;;11.88;6.80;;;;;;;;;;5049957;28;20483;-84
2022/03/12 05:03:21;;;;;;;11.90;6.63;;;;;;;;;;5049940;28;20498;-83
2022/03/12 05:05:51;;;;;;;10.57;7.10;;;;;;;;;;5054112;28;20037;-84
2022/03/12 05:08:22;;;;;;;13.17;7.03;;;;;;;;;;5032480;28;20041;-84
2022/03/12 05:10:50;;;;;;;10.90;6.47;;;;;;;;;;5047140;28;20376;-84
2022/03/12 05:13:23;;;;;;;11.23;6.55;;;;;;;;;;5030369;28;20049;-84
2022/03/12 05:15:51;;;;;;;15.55;7.28;;;;;;;;;;5039099;28;20456;-83
2022/03/12 05:18:19;;;;;;;10.85;6.68;;;;;;;;;;5051250;28;20098;-84
2022/03/12 05:20:46;;;;;;;11.77;6.45;;;;;;;;;;5051520;28;20098;-84
2022/03/12 05:23:16;;;;;;;12.10;6.97;;;;;;;;;;5038861;28;20049;-84
2022/03/12 05:25:43;;;;;;;15.02;6.65;;;;;;;;;;5031488;28;20053;-85
2022/03/12 05:28:10;;;;;;;11.65;6.55;;;;;;;;;;5031594;28;20115;-84
2022/03/12 05:30:36;;;;;;;11.95;6.90;;;;;;;;;;5049799;28;20049;-84
2022/03/12 05:33:04;;;;;;;13.20;7.50;;;;;;;;;;5033816;28;20467;-84
2022/03/12 05:35:30;;;;;;;12.70;6.53;;;;;;;;;;5050443;28;20110;-84
2022/03/12 05:37:56;;;;;;;11.95;6.78;;;;;;;;;;5050516;28;20049;-84
2022/03/12 05:40:25;;;;;;;10.82;6.82;;;;;;;;;;5034274;28;20052;-84
2022/03/12 05:42:55;;;;;;;10.82;6.53;;;;;;;;;;5033713;28;20646;-84
2022/03/12 05:45:22;;;;;;;11.88;6.80;;;;;;;;;;5052416;28;20411;-84
2022/03/12 05:47:49;;;;;;;10.90;6.40;;;;;;;;;;5016165;28;20118;-84
2022/03/12 05:50:16;;;;;;;12.73;6.43;;;;;;;;;;5033172;28;20060;-84
2022/03/12 05:52:49;;;;;;;10.93;6.72;;;;;;;;;;5041509;28;20095;-84
2022/03/12 05:55:17;;;;;;;11.68;6.80;;;;;;;;;;5050122;28;20052;-84
2022/03/12 05:57:44;;;;;;;9.73;6.22;;;;;;;;;;5051609;28;20041;-84
2022/03/12 06:00:11;;;;;;;14.15;6.80;;;;;;;;;;5049234;28;20132;-84
2022/03/12 06:02:49;;;;;;;11.82;7.10;;;;;;;;;;5050563;28;20045;-84
2022/03/12 06:05:17;;;;;;;11.07;6.53;;;;;;;;;;5016826;28;20040;-85
2022/03/12 06:07:46;;;;;;;11.43;6.85;;;;;;;;;;5049443;28;20093;-84
2022/03/12 06:10:29;;;;;;;12.35;7.07;;;;;;;;;;5034209;28;20048;-84
2022/03/12 06:12:56;;;;;;;11.50;7.13;;;;;;;;;;5042335;28;20057;-84
2022/03/12 06:15:22;;;;;;;11.30;6.75;;;;;;;;;;5023492;28;20041;-85
2022/03/12 06:17:49;;;;;;;11.75;7.00;;;;;;;;;;5052481;28;20486;-85
2022/03/12 06:20:20;;;;;;;10.85;6.68;;;;;;;;;;5033714;28;20049;-85
2022/03/12 06:22:47;;;;;;;10.45;6.55;;;;;;;;;;5029639;28;20099;-85
2022/03/12 06:25:14;;;;;;;13.18;6.90;;;;;;;;;;5048079;28;20053;-84
2022/03/12 06:27:43;;;;;;;12.00;6.70;;;;;;;;;;5054655;28;20037;-84
2022/03/12 06:30:11;;;;;;;13.57;6.43;;;;;;;;;;5053096;28;20128;-84
2022/03/12 06:32:38;;;;;;;10.70;6.82;;;;;;;;;;5055101;28;20465;-84
2022/03/12 06:35:05;;;;;;;11.90;6.75;;;;;;;;;;5052518;28;20458;-85
2022/03/12 06:37:34;;;;;;;10.90;7.00;;;;;;;;;;5037845;28;20079;-85
2022/03/12 06:40:00;;;;;;;11.25;6.63;;;;;;;;;;5039243;28;20045;-85
2022/03/12 06:42:29;;;;;;;11.35;6.40;;;;;;;;;;5037719;28;20041;-84
2022/03/12 06:44:58;;;;;;;13.85;7.03;;;;;;;;;;5055994;28;20073;-84
2022/03/12 06:47:31;;;;;;;14.23;6.65;;;;;;;;;;5053259;28;20056;-84
2022/03/12 06:49:59;;;;;;;13.35;6.22;;;;;;;;;;5048287;28;20057;-83
2022/03/12 06:52:36;;;;;;;9.35;6.25;;;;;;;;;;5054849;28;20037;-84
2022/03/12 06:55:02;;;;;;;11.57;6.63;;;;;;;;;;5020059;28;20063;-84
2022/03/12 06:57:28;;;;;;;11.30;7.07;;;;;;;;;;5048602;28;20064;-83
2022/03/12 06:59:54;;;;;;;10.30;6.68;;;;;;;;;;5051821;28;20099;-83
2022/03/12 07:02:20;;;;;;;10.80;6.93;;;;;;;;;;5054865;28;20037;-83
2022/03/12 07:04:46;;;;;;;11.00;6.88;;;;;;;;;;5054182;28;20037;-84
2022/03/12 07:07:12;;;;;;;11.68;6.95;;;;;;;;;;5051875;28;20066;-84
2022/03/12 07:09:38;;;;;;;13.57;6.78;;;;;;;;;;5050128;28;20052;-84
2022/03/12 07:12:04;;;;;;;10.65;6.93;;;;;;;;;;5049873;28;20041;-84
2022/03/12 07:14:31;;;;;;;12.02;6.90;;;;;;;;;;5032314;28;20073;-85
2022/03/12 07:16:57;;;;;;;14.85;6.85;;;;;;;;;;5052764;28;20049;-84
2022/03/12 07:19:24;;;;;;;11.40;7.13;;;;;;;;;;5034087;28;20094;-85
2022/03/12 07:21:51;;;;;;;12.60;7.40;;;;;;;;;;5054604;28;20053;-84
2022/03/12 07:24:17;;;;;;;11.60;7.00;;;;;;;;;;5049501;28;20048;-84
2022/03/12 07:26:45;;;;;;;10.55;6.30;;;;;;;;;;5040882;28;20048;-84
2022/03/12 07:29:11;;;;;;;11.88;6.95;;;;;;;;;;5010243;28;20099;-84
2022/03/12 07:31:40;;;;;;;12.40;6.70;;;;;;;;;;5054017;28;20123;-83
2022/03/12 07:34:07;;;;;;;11.95;6.80;;;;;;;;;;5047218;28;20399;-83
2022/03/12 07:36:33;;;;;;;12.95;7.03;;;;;;;;;;5049853;28;20456;-83
2022/03/12 07:39:03;;;;;;;13.02;6.90;;;;;;;;;;5055110;28;20049;-84
2022/03/12 07:41:29;;;;;;;11.45;7.28;;;;;;;;;;5055951;28;20091;-83
2022/03/12 07:43:55;;;;;;;11.43;6.97;;;;;;;;;;5049172;28;20040;-84
2022/03/12 07:46:21;;;;;;;11.60;6.85;;;;;;;;;;5052665;28;20041;-84
2022/03/12 07:48:51;;;;;;;11.63;7.35;;;;;;;;;;5054833;28;20080;-84
2022/03/12 07:51:17;;;;;;;11.00;7.03;;;;;;;;;;5036475;28;20040;-84
2022/03/12 07:53:43;;;;;;;12.52;7.60;;;;;;;;;;5054396;28;20045;-84
2022/03/12 07:56:09;;;;;;;10.20;6.75;;;;;;;;;;5054868;28;20049;-84
2022/03/12 07:58:36;;;;;;;11.73;7.47;;;;;;;;;;5054654;28;20049;-84
2022/03/12 08:01:03;;;;;;;15.13;7.80;;;;;;;;;;5034382;28;20403;-84
2022/03/12 08:03:29;;;;;;;11.93;7.35;;;;;;;;;;5054498;28;20036;-84
2022/03/12 08:05:56;;;;;;;13.02;7.22;;;;;;;;;;5054359;28;20129;-85
2022/03/12 08:08:22;;;;;;;11.43;7.53;;;;;;;;;;5051287;28;20048;-84
2022/03/12 08:13:32;;;;;;;11.45;7.00;;;;;;;;;;5041216;28;20086;-83
2022/03/12 08:15:59;;;;;;;13.88;8.10;;;;;;;;;;5054091;28;20052;-84
2022/03/12 08:18:25;;;;;;;13.30;7.82;;;;;;;;;;5049311;28;20091;-83
2022/03/12 08:20:52;;;;;;;12.30;7.65;;;;;;;;;;5034604;28;20544;-84
2022/03/12 08:23:18;;;;;;;13.57;7.78;;;;;;;;;;5032958;28;20045;-83
2022/03/12 08:25:44;;;;;;;15.23;7.95;;;;;;;;;;5052607;28;20052;-83
2022/03/12 08:28:10;;;;;;;11.90;8.02;;;;;;;;;;5036334;28;20048;-83
2022/03/12 08:30:37;;;;;;;10.63;7.63;;;;;;;;;;5053502;28;20041;-83
2022/03/12 08:33:03;;;;;;;12.95;7.88;;;;;;;;;;5052479;28;20048;-83
2022/03/12 08:35:30;;;;;;;15.70;7.85;;;;;;;;;;5024973;28;20052;-84
2022/03/12 08:37:58;;;;;;;14.65;7.88;;;;;;;;;;5048621;28;20032;-84
2022/03/12 08:40:25;;;;;;;14.07;9.10;;;;;;;;;;5035344;28;20483;-85
2022/03/12 08:42:53;;;;;;;14.70;7.93;;;;;;;;;;5036389;28;20090;-84
2022/03/12 08:45:21;;;;;;;15.57;8.50;;;;;;;;;;5053273;28;20045;-84
2022/03/12 08:47:47;;;;;;;17.45;9.02;;;;;;;;;;5035873;28;20060;-83
2022/03/12 08:50:13;;;;;;;13.30;7.95;;;;;;;;;;5036176;28;20049;-83
2022/03/12 08:52:41;;;;;;;22.23;11.90;;;;;;;;;;5051481;28;21343;-84
2022/03/12 08:55:07;;;;;;;13.93;8.80;;;;;;;;;;5051342;28;20052;-84
2022/03/12 08:57:33;;;;;;;17.33;10.25;;;;;;;;;;5034552;28;20120;-84
2022/03/12 08:59:59;;;;;;;13.32;8.85;;;;;;;;;;5053592;28;20072;-84
2022/03/12 09:02:28;;;;;;;16.60;9.25;;;;;;;;;;5054751;28;20076;-84
2022/03/12 09:04:54;;;;;;;14.93;8.93;;;;;;;;;;5037001;28;20067;-84
2022/03/12 09:07:20;;;;;;;12.48;8.75;;;;;;;;;;5053734;28;20478;-83
2022/03/12 09:09:46;;;;;;;14.63;8.75;;;;;;;;;;5054172;28;20101;-84
2022/03/12 09:12:12;;;;;;;14.07;8.65;;;;;;;;;;5036372;28;20080;-83
2022/03/12 09:14:38;;;;;;;14.68;8.80;;;;;;;;;;5054708;28;20119;-83
2022/03/12 09:17:05;;;;;;;15.32;9.45;;;;;;;;;;5037390;28;20053;-84
2022/03/12 09:19:32;;;;;;;16.23;9.55;;;;;;;;;;5037050;28;20048;-84
2022/03/12 09:21:58;;;;;;;18.27;9.43;;;;;;;;;;5054232;28;20071;-84
2022/03/12 09:24:24;;;;;;;15.50;9.63;;;;;;;;;;5053702;28;20070;-84
2022/03/12 09:26:50;;;;;;;17.20;10.65;;;;;;;;;;5053508;28;20076;-84
2022/03/12 09:29:16;;;;;;;16.25;10.70;;;;;;;;;;5053264;28;20525;-84
2022/03/12 09:31:42;;;;;;;14.85;10.82;;;;;;;;;;5035232;28;20407;-84
2022/03/12 09:34:09;;;;;;;14.98;10.48;;;;;;;;;;5034928;28;20049;-84
2022/03/12 09:36:36;;;;;;;14.55;9.88;;;;;;;;;;5035431;28;20150;-84
2022/03/12 09:39:03;;;;;;;16.60;9.85;;;;;;;;;;5053629;28;20084;-83
2022/03/12 09:41:29;;;;;;;15.40;9.90;;;;;;;;;;5053444;28;20052;-84
2022/03/12 09:43:56;;;;;;;18.30;10.40;;;;;;;;;;5054435;28;20056;-84
2022/03/12 09:46:22;;;;;;;17.80;10.30;;;;;;;;;;5057416;28;20124;-83
2022/03/12 09:48:48;;;;;;;15.30;10.07;;;;;;;;;;5056972;28;20053;-84
2022/03/12 09:51:14;;;;;;;14.48;10.00;;;;;;;;;;5056790;28;20051;-84
2022/03/12 09:53:41;;;;;;;14.48;9.50;;;;;;;;;;5057423;28;20406;-83
2022/03/12 09:56:07;;;;;;;14.15;9.18;;;;;;;;;;5057319;28;20045;-84
2022/03/12 09:58:33;;;;;;;19.63;9.00;;;;;;;;;;5056779;28;20068;-83
2022/03/12 10:00:59;;;;;;;16.50;9.50;;;;;;;;;;5055712;28;20041;-84
2022/03/12 10:03:25;;;;;;;13.40;8.25;;;;;;;;;;5056304;28;20048;-84
2022/03/12 10:05:51;;;;;;;12.25;9.10;;;;;;;;;;5038399;28;20049;-84
2022/03/12 10:08:17;;;;;;;16.35;9.15;;;;;;;;;;5056816;28;20044;-83
2022/03/12 10:10:44;;;;;;;14.88;9.50;;;;;;;;;;5056650;28;20041;-84
2022/03/12 10:13:11;;;;;;;14.95;10.00;;;;;;;;;;5056681;28;20049;-83
2022/03/12 10:15:37;;;;;;;17.55;10.75;;;;;;;;;;5039024;28;20127;-83
2022/03/12 10:18:03;;;;;;;13.93;10.02;;;;;;;;;;5056847;28;20041;-83
2022/03/12 10:20:30;;;;;;;15.00;9.60;;;;;;;;;;5055883;28;20159;-83
2022/03/12 10:22:56;;;;;;;13.05;9.68;;;;;;;;;;5056995;28;20073;-84
2022/03/12 10:25:23;;;;;;;14.02;8.32;;;;;;;;;;5038866;28;20495;-83
2022/03/12 10:27:50;;;;;;;12.98;9.20;;;;;;;;;;5056772;28;20403;-84
2022/03/12 10:30:16;;;;;;;15.27;10.45;;;;;;;;;;5038263;28;20051;-84
2022/03/12 10:32:46;;;;;;;12.98;9.18;;;;;;;;;;5038896;28;20053;-84
2022/03/12 10:35:14;;;;;;;12.40;9.05;;;;;;;;;;5056807;28;20084;-84
2022/03/12 10:37:40;;;;;;;12.00;9.27;;;;;;;;;;5040146;28;20045;-84
2022/03/12 10:40:09;;;;;;;21.27;15.55;;;;;;;;;;5056570;28;20072;-84
2022/03/12 10:42:36;;;;;;;23.35;15.55;;;;;;;;;;5057680;28;20071;-84
2022/03/12 10:45:09;;;;;;;22.27;14.85;;;;;;;;;;5056333;28;20041;-84
2022/03/12 10:47:39;;;;;;;31.52;21.02;;;;;;;;;;5056793;28;20057;-84
2022/03/12 10:50:07;;;;;;;31.08;20.65;;;;;;;;;;5056531;28;20052;-83
2022/03/12 10:52:34;;;;;;;41.17;24.90;;;;;;;;;;5056165;28;20041;-84
2022/03/12 10:55:05;;;;;;;27.35;18.27;;;;;;;;;;5055829;28;20095;-84
2022/03/12 10:57:31;;;;;;;;;;;;;;;;;;5057460;28;20037;-84
2022/03/12 10:59:57;;;;;;;23.35;15.80;;;;;;;;;;5055766;28;19973;-83
2022/03/12 11:02:23;;;;;;;15.57;11.10;;;;;;;;;;5056246;28;20037;-84
2022/03/12 11:04:49;;;;;;;19.20;13.55;;;;;;;;;;5021580;28;20048;-84
2022/03/12 11:07:26;;;;;;;16.10;12.30;;;;;;;;;;5056198;28;20040;-83
2022/03/12 11:09:55;;;;;;;18.70;10.48;;;;;;;;;;5059742;28;20049;-84
2022/03/12 11:12:28;;;;;;;13.32;9.52;;;;;;;;;;5059934;28;20056;-83
2022/03/12 11:15:16;;;;;;;15.02;10.77;;;;;;;;;;5038961;28;20057;-84
2022/03/12 11:17:44;;;;;;;13.38;10.00;;;;;;;;;;5055624;28;20040;-84
2022/03/12 11:20:16;;;;;;;15.73;9.70;;;;;;;;;;5057321;28;20044;-84
2022/03/12 11:22:42;;;;;;;13.13;10.25;;;;;;;;;;5041147;28;20048;-83
2022/03/12 11:25:11;;;;;;;15.43;10.45;;;;;;;;;;5038270;28;20067;-84
2022/03/12 11:27:37;;;;;;;13.95;10.30;;;;;;;;;;5055757;28;20040;-83
2022/03/12 11:30:09;;;;;;;13.75;9.07;;;;;;;;;;5056057;28;20040;-84
2022/03/12 11:32:44;;;;;;;13.40;8.65;;;;;;;;;;5022196;28;20095;-84
2022/03/12 11:35:11;;;;;;;13.07;8.50;;;;;;;;;;5056071;28;20067;-83
2022/03/12 11:37:40;;;;;;;13.77;8.40;;;;;;;;;;5057973;28;20483;-84
2022/03/12 11:40:09;;;;;;;11.48;8.50;;;;;;;;;;5056032;28;20407;-84
2022/03/12 11:42:36;;;;;;;13.43;8.82;;;;;;;;;;5056913;28;20116;-83
2022/03/12 11:45:04;;;;;;;20.85;14.25;;;;;;;;;;5057463;28;20060;-84
2022/03/12 11:47:34;;;;;;;23.55;15.60;;;;;;;;;;5056246;28;20057;-84
2022/03/12 11:50:01;;;;;;;17.83;11.75;;;;;;;;;;5055173;28;20056;-84
2022/03/12 11:52:28;;;;;;;15.73;11.35;;;;;;;;;;5055568;28;20045;-84
2022/03/12 11:54:56;;;;;;;14.30;9.32;;;;;;;;;;5056361;28;20045;-85
2022/03/12 11:57:22;;;;;;;15.23;10.30;;;;;;;;;;5056262;28;20529;-84
2022/03/12 11:59:48;;;;;;;14.20;8.98;;;;;;;;;;5037123;28;20136;-84
2022/03/12 12:02:29;;;;;;;13.95;9.05;;;;;;;;;;5055777;28;20053;-84
2022/03/12 12:04:56;;;;;;;18.42;10.80;;;;;;;;;;5055532;28;20069;-84
2022/03/12 12:07:29;;;;;;;17.48;13.13;;;;;;;;;;5038618;28;20049;-85
2022/03/12 12:09:55;;;;;;;23.63;15.20;;;;;;;;;;5055234;28;20053;-84
2022/03/12 12:12:24;;;;;;;16.30;11.18;;;;;;;;;;5054742;28;20091;-84
2022/03/12 12:14:52;;;;;;;17.27;12.52;;;;;;;;;;5037665;28;20041;-84
2022/03/12 12:17:18;;;;;;;20.23;14.60;;;;;;;;;;5037624;28;20048;-85
2022/03/12 12:19:44;;;;;;;15.38;11.10;;;;;;;;;;5055723;28;20040;-82
2022/03/12 12:22:10;;;;;;;19.15;13.05;;;;;;;;;;5055561;28;20491;-83
2022/03/12 12:24:43;;;;;;;19.70;13.30;;;;;;;;;;5055542;28;20045;-83
2022/03/12 12:27:11;;;;;;;21.25;15.23;;;;;;;;;;5054962;28;20119;-83
2022/03/12 12:29:46;;;;;;;12.95;10.05;;;;;;;;;;5054564;28;20124;-84
2022/03/12 12:32:13;;;;;;;15.43;11.40;;;;;;;;;;5037895;28;20064;-84
2022/03/12 12:34:58;;;;;;;15.23;11.18;;;;;;;;;;5037205;28;20049;-83
2022/03/12 12:37:42;;;;;;;15.68;12.13;;;;;;;;;;5055391;28;20056;-84
2022/03/12 12:40:20;;;;;;;19.13;13.30;;;;;;;;;;5054547;28;20045;-83
2022/03/12 12:42:48;;;;;;;16.45;12.10;;;;;;;;;;5056159;28;20048;-84
2022/03/12 12:45:16;;;;;;;16.10;10.80;;;;;;;;;;5054614;28;20490;-84
2022/03/12 12:47:42;;;;;;;16.83;11.82;;;;;;;;;;5037204;28;20151;-84
2022/03/12 12:50:30;;;;;;;17.48;11.68;;;;;;;;;;5054958;28;20400;-83
2022/03/12 12:53:13;;;;;;;34.17;21.35;;;;;;;;;;5055759;28;20045;-84
2022/03/12 12:55:40;;;;;;;20.58;13.63;;;;;;;;;;5056957;28;20086;-84
2022/03/12 12:58:06;;;;;;;13.77;10.10;;;;;;;;;;5057121;28;20041;-83
2022/03/12 13:00:33;;;;;;;28.25;18.38;;;;;;;;;;5054782;28;20068;-84
2022/03/12 13:03:00;;;;;;;29.35;20.13;;;;;;;;;;5055794;28;20074;-83
2022/03/12 13:05:41;;;;;;;14.57;10.85;;;;;;;;;;5054658;28;20041;-84
2022/03/12 13:08:08;;;;;;;22.88;15.18;;;;;;;;;;5055014;28;20048;-85
2022/03/12 13:10:35;;;;;;;16.70;10.40;;;;;;;;;;5038612;28;20120;-84
2022/03/12 13:13:21;;;;;;;14.10;9.85;;;;;;;;;;5055359;28;20041;-84
2022/03/12 13:15:50;;;;;;;12.45;8.50;;;;;;;;;;5056007;28;20123;-84
2022/03/12 13:18:16;;;;;;;13.35;9.20;;;;;;;;;;5037937;28;20072;-83
2022/03/12 13:20:45;;;;;;;14.10;9.82;;;;;;;;;;5054252;28;20048;-84
2022/03/12 13:23:12;;;;;;;11.43;8.82;;;;;;;;;;5054430;28;20398;-83
2022/03/12 13:25:46;;;;;;;14.18;9.18;;;;;;;;;;5055449;28;20045;-83
2022/03/12 13:28:15;;;;;;;14.20;8.90;;;;;;;;;;5059310;28;20111;-84
2022/03/12 13:30:41;;;;;;;14.50;9.32;;;;;;;;;;5058406;28;20049;-84
2022/03/12 13:33:11;;;;;;;14.85;9.45;;;;;;;;;;5055816;28;20076;-84
2022/03/12 13:35:37;;;;;;;13.18;8.88;;;;;;;;;;5055149;28;20550;-85
2022/03/12 13:38:04;;;;;;;13.65;8.77;;;;;;;;;;5055440;28;20103;-84
2022/03/12 13:40:31;;;;;;;10.90;7.60;;;;;;;;;;5053974;28;20037;-84
2022/03/12 13:42:58;;;;;;;13.27;8.35;;;;;;;;;;5054949;28;20045;-84
2022/03/12 13:45:25;;;;;;;12.15;7.78;;;;;;;;;;5054864;28;20053;-84
2022/03/12 13:47:53;;;;;;;13.63;7.78;;;;;;;;;;5054671;28;20142;-85
2022/03/12 13:50:20;;;;;;;12.23;7.50;;;;;;;;;;5037200;28;20106;-85
2022/03/12 13:52:48;;;;;;;11.35;7.80;;;;;;;;;;5054555;28;20512;-84
2022/03/12 13:55:15;;;;;;;11.93;7.70;;;;;;;;;;5054598;28;20049;-84
2022/03/12 13:57:41;;;;;;;11.02;7.70;;;;;;;;;;5054241;28;20049;-84
2022/03/12 14:00:16;;;;;;;12.30;7.55;;;;;;;;;;5054603;28;20049;-84
2022/03/12 14:02:49;;;;;;;12.25;7.13;;;;;;;;;;5053515;28;20483;-83
2022/03/12 14:05:29;;;;;;;12.82;7.43;;;;;;;;;;5052740;28;20487;-84
2022/03/12 14:07:56;;;;;;;12.85;7.07;;;;;;;;;;5038301;28;20060;-84
2022/03/12 14:10:23;;;;;;;14.35;7.32;;;;;;;;;;5055117;28;20205;-84
2022/03/12 14:13:03;;;;;;;15.00;6.95;;;;;;;;;;5055126;28;20049;-84
2022/03/12 14:15:32;;;;;;;12.93;7.25;;;;;;;;;;5036588;28;20052;-84
2022/03/12 14:17:59;;;;;;;12.75;6.85;;;;;;;;;;5054694;28;20128;-84
2022/03/12 14:20:26;;;;;;;11.32;7.38;;;;;;;;;;5055227;28;20041;-84
2022/03/12 14:22:52;;;;;;;11.38;7.43;;;;;;;;;;5053243;28;20045;-84
2022/03/12 14:25:29;;;;;;;11.02;6.90;;;;;;;;;;5035024;28;20041;-84
2022/03/12 14:27:55;;;;;;;10.35;6.10;;;;;;;;;;5053124;28;20041;-84
2022/03/12 14:30:24;;;;;;;11.00;6.15;;;;;;;;;;5036185;28;20045;-84
2022/03/12 14:32:52;;;;;;;10.20;6.05;;;;;;;;;;5022568;28;20043;-84
2022/03/12 14:35:20;;;;;;;9.50;5.93;;;;;;;;;;5057171;28;20059;-84
2022/03/12 14:37:47;;;;;;;12.90;6.38;;;;;;;;;;5059214;28;20115;-83